Time;durP1;ratioP1;P1;durP2;ratioP2;P2;SDS_P1;SDS_P2;PMS_P1;PMS_P2;Temp;Humidity;BMP_temperature;BMP_pressure;BME280_temperature;BME280_humidity;BME280_pressure;Samples;Min_cycle;Max_cycle;Signal;HPM_P1;HPM_P2
2023/04/15 00:02:00;;;;;;;9.85;6.30;;;8.40;99.90;;;;;;5087071;28;20420;-77
2023/04/15 00:04:27;;;;;;;12.20;6.70;;;8.40;99.90;;;;;;5088177;28;20432;-77
2023/04/15 00:06:53;;;;;;;12.25;6.35;;;8.40;99.90;;;;;;5088063;28;21462;-77
2023/04/15 00:09:20;;;;;;;9.95;6.50;;;8.40;99.90;;;;;;5087075;28;20440;-77
2023/04/15 00:11:45;;;;;;;10.27;6.20;;;8.30;99.90;;;;;;5102413;28;20399;-77
2023/04/15 00:14:12;;;;;;;11.90;6.83;;;8.30;99.90;;;;;;5088878;28;20400;-77
2023/04/15 00:16:38;;;;;;;10.90;6.88;;;8.20;99.90;;;;;;5104256;28;20414;-77
2023/04/15 00:19:03;;;;;;;10.40;6.67;;;8.20;99.90;;;;;;5105740;28;20403;-77
2023/04/15 00:21:30;;;;;;;12.00;6.78;;;8.20;99.90;;;;;;5105253;28;20445;-78
2023/04/15 00:23:55;;;;;;;11.32;6.82;;;8.10;99.90;;;;;;5097777;28;20405;-77
2023/04/15 00:26:21;;;;;;;9.77;6.70;;;8.10;99.90;;;;;;5100155;28;20492;-77
2023/04/15 00:28:46;;;;;;;10.53;7.00;;;8.10;99.90;;;;;;5105628;28;20954;-77
2023/04/15 00:31:13;;;;;;;12.55;7.40;;;8.00;99.90;;;;;;5106053;28;20456;-77
2023/04/15 00:33:38;;;;;;;12.07;7.45;;;8.10;99.90;;;;;;5107480;28;20404;-77
2023/04/15 00:36:06;;;;;;;11.82;7.35;;;8.00;99.90;;;;;;5105195;28;21076;-77
2023/04/15 00:38:31;;;;;;;10.45;7.28;;;8.00;99.90;;;;;;5106655;28;20487;-78
2023/04/15 00:40:57;;;;;;;12.50;7.67;;;8.00;99.90;;;;;;5105179;28;20481;-77
2023/04/15 00:43:23;;;;;;;12.82;7.60;;;8.00;99.90;;;;;;5106885;28;20541;-77
2023/04/15 00:45:52;;;;;;;11.10;8.07;;;7.90;99.90;;;;;;5091950;28;20745;-77
2023/04/15 00:48:18;;;;;;;10.68;7.40;;;7.90;99.90;;;;;;5109536;28;20428;-77
2023/04/15 00:50:44;;;;;;;13.48;7.55;;;7.90;99.90;;;;;;5107066;27;20398;-77
2023/04/15 00:53:10;;;;;;;10.80;6.93;;;7.90;99.90;;;;;;5091913;28;20444;-77
2023/04/15 00:55:36;;;;;;;12.90;7.87;;;7.80;99.90;;;;;;5103454;28;20413;-77
2023/04/15 00:58:02;;;;;;;9.55;7.22;;;7.80;99.90;;;;;;5091926;28;20984;-77
2023/04/15 01:00:29;;;;;;;10.50;7.33;;;7.80;99.90;;;;;;5090090;28;20501;-77
2023/04/15 01:02:54;;;;;;;12.25;7.57;;;7.80;99.90;;;;;;5073282;28;20420;-77
2023/04/15 01:05:20;;;;;;;10.32;6.93;;;7.80;99.90;;;;;;5091792;28;20418;-77
2023/04/15 01:07:47;;;;;;;10.57;7.17;;;7.70;99.90;;;;;;5082853;28;21050;-77
2023/04/15 01:10:13;;;;;;;11.48;7.53;;;7.70;99.90;;;;;;5097049;28;20501;-77
2023/04/15 01:12:39;;;;;;;11.48;7.20;;;7.70;99.90;;;;;;5092603;28;20420;-77
2023/04/15 01:15:05;;;;;;;10.52;7.13;;;7.70;99.90;;;;;;5109884;28;20465;-78
2023/04/15 01:17:31;;;;;;;11.10;7.28;;;7.70;99.90;;;;;;5110211;28;20404;-77
2023/04/15 01:19:57;;;;;;;10.18;7.13;;;7.60;99.90;;;;;;5092031;28;20400;-77
2023/04/15 01:22:25;;;;;;;10.35;7.15;;;7.70;99.90;;;;;;5110995;28;20480;-78
2023/04/15 01:25:05;;;;;;;11.80;7.95;;;7.60;99.90;;;;;;5108514;28;20499;-77
2023/04/15 01:27:31;;;;;;;10.02;7.70;;;7.60;99.90;;;;;;5109972;28;20423;-77
2023/04/15 01:29:57;;;;;;;12.33;7.17;;;7.60;99.90;;;;;;5108641;28;20392;-77
2023/04/15 01:32:23;;;;;;;10.63;7.50;;;7.60;99.90;;;;;;5110221;28;21500;-77
2023/04/15 01:34:48;;;;;;;11.45;7.97;;;7.50;99.90;;;;;;5107811;28;20392;-77
2023/04/15 01:37:14;;;;;;;13.80;8.25;;;7.50;99.90;;;;;;5098107;28;20394;-77
2023/04/15 01:39:40;;;;;;;13.50;8.80;;;7.50;99.90;;;;;;5093696;28;20415;-77
2023/04/15 01:42:05;;;;;;;10.82;8.60;;;7.50;99.90;;;;;;5097463;28;20402;-77
2023/04/15 01:44:31;;;;;;;14.33;9.33;;;7.50;99.90;;;;;;5101956;28;20485;-78
2023/04/15 01:46:57;;;;;;;13.50;9.23;;;7.50;99.90;;;;;;5100943;28;20438;-77
2023/04/15 01:49:22;;;;;;;14.60;9.38;;;7.50;99.90;;;;;;5105985;28;20428;-78
2023/04/15 01:51:48;;;;;;;12.67;9.13;;;7.50;99.90;;;;;;5108900;28;20429;-77
2023/04/15 01:54:14;;;;;;;12.57;9.15;;;7.40;99.90;;;;;;5105111;28;20400;-77
2023/04/15 01:56:40;;;;;;;15.13;10.15;;;7.40;99.90;;;;;;5096761;28;20394;-77
2023/04/15 01:59:05;;;;;;;13.77;10.20;;;7.40;99.90;;;;;;5091484;28;20474;-77
2023/04/15 02:01:31;;;;;;;13.38;9.80;;;7.40;99.90;;;;;;5090919;28;20832;-77
2023/04/15 02:03:57;;;;;;;14.48;10.60;;;7.40;99.90;;;;;;5090288;28;20402;-77
2023/04/15 02:06:23;;;;;;;15.47;11.23;;;7.40;99.90;;;;;;5106156;28;20795;-77
2023/04/15 02:08:49;;;;;;;17.73;11.45;;;7.40;99.90;;;;;;5089349;28;20438;-77
2023/04/15 02:11:14;;;;;;;14.70;11.25;;;7.40;99.90;;;;;;5090723;28;20444;-77
2023/04/15 02:13:40;;;;;;;15.48;11.43;;;7.40;99.90;;;;;;5090774;28;20406;-77
2023/04/15 02:16:16;;;;;;;14.97;11.43;;;7.40;99.90;;;;;;5089847;28;20447;-77
2023/04/15 02:18:44;;;;;;;14.30;11.38;;;7.30;99.90;;;;;;5104949;28;20403;-77
2023/04/15 02:21:09;;;;;;;15.57;11.68;;;7.30;99.90;;;;;;5089346;28;20776;-77
2023/04/15 02:23:35;;;;;;;16.57;11.80;;;7.30;99.90;;;;;;5083104;28;20418;-77
2023/04/15 02:26:00;;;;;;;15.55;11.82;;;7.30;99.90;;;;;;5102455;28;20438;-77
2023/04/15 02:28:26;;;;;;;15.43;11.87;;;7.20;99.90;;;;;;5093770;28;20472;-77
2023/04/15 02:30:53;;;;;;;17.75;12.32;;;7.20;99.90;;;;;;5091044;28;20438;-77
2023/04/15 02:33:20;;;;;;;17.20;12.52;;;7.10;99.90;;;;;;5085433;28;20418;-77
2023/04/15 02:35:46;;;;;;;15.50;12.10;;;7.20;99.90;;;;;;5095934;28;20394;-77
2023/04/15 02:38:13;;;;;;;17.37;13.07;;;7.10;99.90;;;;;;5097506;28;20444;-78
2023/04/15 02:40:39;;;;;;;17.35;13.23;;;7.10;99.90;;;;;;5098831;28;20473;-77
2023/04/15 02:43:05;;;;;;;16.95;13.07;;;7.10;99.90;;;;;;5089075;28;20474;-78
2023/04/15 02:45:32;;;;;;;18.50;13.38;;;7.00;99.90;;;;;;5100482;28;20408;-76
2023/04/15 02:47:57;;;;;;;18.13;14.20;;;7.00;99.90;;;;;;5099085;28;20425;-76
2023/04/15 02:50:24;;;;;;;17.92;13.35;;;7.00;99.90;;;;;;5093064;28;20769;-76
2023/04/15 02:52:51;;;;;;;19.90;14.00;;;7.00;99.90;;;;;;5098000;28;20954;-76
2023/04/15 02:55:16;;;;;;;17.17;13.80;;;7.00;99.90;;;;;;5082428;28;20901;-77
2023/04/15 02:57:42;;;;;;;19.02;14.43;;;7.00;99.90;;;;;;5091968;28;20402;-76
2023/04/15 03:00:10;;;;;;;18.93;15.07;;;6.90;99.90;;;;;;5095068;28;20460;-77
2023/04/15 03:02:40;;;;;;;18.23;14.00;;;7.00;99.90;;;;;;5094496;28;20505;-76
2023/04/15 03:05:10;;;;;;;19.43;14.23;;;6.90;99.90;;;;;;5094477;28;20431;-77
2023/04/15 03:07:36;;;;;;;17.90;14.23;;;6.90;99.90;;;;;;5094186;28;20455;-76
2023/04/15 03:10:01;;;;;;;19.23;13.45;;;6.90;99.90;;;;;;5090678;28;20462;-77
2023/04/15 03:12:28;;;;;;;16.67;13.20;;;6.90;99.90;;;;;;5100114;28;20841;-76
2023/04/15 03:14:53;;;;;;;17.90;13.43;;;6.90;99.90;;;;;;5089793;28;20398;-77
2023/04/15 03:17:19;;;;;;;15.50;12.07;;;6.90;99.90;;;;;;5099693;28;21265;-77
2023/04/15 03:19:45;;;;;;;16.42;12.32;;;6.90;99.90;;;;;;5095826;28;20395;-76
2023/04/15 03:22:10;;;;;;;16.23;11.80;;;6.90;99.90;;;;;;5099423;28;20396;-77
2023/04/15 03:24:36;;;;;;;16.30;11.43;;;6.80;99.90;;;;;;5094273;28;20463;-77
2023/04/15 03:27:02;;;;;;;13.37;10.63;;;6.90;99.90;;;;;;5099633;28;20929;-76
2023/04/15 03:29:27;;;;;;;13.97;11.00;;;6.90;99.90;;;;;;5096009;28;20414;-76
2023/04/15 03:31:53;;;;;;;13.32;10.40;;;6.80;99.90;;;;;;5094764;28;20919;-76
2023/04/15 03:34:19;;;;;;;13.88;10.18;;;6.90;99.90;;;;;;5096604;28;20473;-76
2023/04/15 03:36:45;;;;;;;13.90;10.00;;;6.80;99.90;;;;;;5087021;28;20413;-76
2023/04/15 03:39:11;;;;;;;12.77;9.73;;;6.80;99.90;;;;;;5095389;28;20405;-75
2023/04/15 03:41:36;;;;;;;12.43;9.30;;;6.80;99.90;;;;;;5092353;28;20753;-76
2023/04/15 03:44:02;;;;;;;13.20;9.60;;;6.80;99.90;;;;;;5096947;28;20414;-76
2023/04/15 03:46:28;;;;;;;12.70;9.67;;;6.80;99.90;;;;;;5096020;28;20405;-75
2023/04/15 03:48:53;;;;;;;13.85;9.82;;;6.80;99.90;;;;;;5095806;28;20418;-76
2023/04/15 03:51:19;;;;;;;10.98;9.48;;;6.80;99.90;;;;;;5100824;28;20774;-75
2023/04/15 03:53:45;;;;;;;12.07;9.40;;;6.80;99.90;;;;;;5080042;28;20426;-77
2023/04/15 03:56:10;;;;;;;14.10;9.75;;;6.80;99.90;;;;;;5093132;28;20400;-76
2023/04/15 03:58:36;;;;;;;11.90;9.60;;;6.80;99.90;;;;;;5096906;28;20410;-79
2023/04/15 04:01:02;;;;;;;16.10;11.20;;;6.80;99.90;;;;;;5099596;28;20408;-78
2023/04/15 04:03:27;;;;;;;14.05;10.73;;;6.80;99.90;;;;;;5096383;28;20394;-78
2023/04/15 04:05:53;;;;;;;13.90;11.60;;;6.80;99.90;;;;;;5099349;28;20739;-78
2023/04/15 04:08:20;;;;;;;15.85;11.68;;;6.80;99.90;;;;;;5079508;28;20440;-78
2023/04/15 04:10:46;;;;;;;17.52;11.40;;;6.80;99.90;;;;;;5094329;28;20410;-78
2023/04/15 04:13:11;;;;;;;15.75;12.05;;;6.80;99.90;;;;;;5093183;28;20746;-78
2023/04/15 04:15:37;;;;;;;14.77;11.17;;;6.80;99.90;;;;;;5092713;28;20421;-78
2023/04/15 04:18:03;;;;;;;15.02;11.52;;;6.80;99.90;;;;;;5094539;28;20486;-78
2023/04/15 04:20:30;;;;;;;16.87;11.87;;;6.80;99.90;;;;;;5085264;28;20488;-78
2023/04/15 04:22:56;;;;;;;17.50;11.90;;;6.80;99.90;;;;;;5094191;28;20906;-78
2023/04/15 04:25:23;;;;;;;18.23;12.20;;;6.90;99.90;;;;;;5098747;28;20392;-78
2023/04/15 04:27:49;;;;;;;16.60;11.95;;;6.90;99.90;;;;;;5095524;28;20429;-78
2023/04/15 04:30:15;;;;;;;16.90;12.53;;;6.90;99.90;;;;;;5090502;28;20404;-78
2023/04/15 04:32:40;;;;;;;17.37;12.00;;;6.90;99.90;;;;;;5089360;28;20429;-76
2023/04/15 04:35:07;;;;;;;16.90;11.95;;;6.90;99.90;;;;;;5090653;28;20397;-76
2023/04/15 04:37:32;;;;;;;15.65;11.70;;;6.90;99.90;;;;;;5088146;28;20398;-77
2023/04/15 04:39:58;;;;;;;15.73;11.35;;;6.90;99.90;;;;;;5098541;28;20408;-76
2023/04/15 04:42:23;;;;;;;17.17;11.93;;;7.00;99.90;;;;;;5096401;28;20475;-76
2023/04/15 04:44:49;;;;;;;18.23;12.02;;;7.00;99.90;;;;;;5086986;28;20879;-76
2023/04/15 04:47:15;;;;;;;17.43;12.40;;;7.00;99.90;;;;;;5087586;28;20413;-76
2023/04/15 04:49:41;;;;;;;18.98;12.75;;;7.10;99.90;;;;;;5076746;28;20433;-76
2023/04/15 04:52:06;;;;;;;18.83;12.75;;;7.10;99.90;;;;;;5093377;28;20429;-77
2023/04/15 04:54:32;;;;;;;19.35;13.25;;;7.20;99.90;;;;;;5103540;28;20518;-77
2023/04/15 04:56:58;;;;;;;17.33;13.13;;;7.20;99.90;;;;;;5085917;28;20408;-77
2023/04/15 04:59:24;;;;;;;22.92;13.63;;;7.20;99.90;;;;;;5086383;28;20410;-77
2023/04/15 05:01:50;;;;;;;20.25;13.95;;;7.20;99.90;;;;;;5075518;28;20409;-77
2023/04/15 05:04:15;;;;;;;20.60;14.20;;;7.30;99.90;;;;;;5096392;28;20412;-77
2023/04/15 05:06:41;;;;;;;20.43;13.63;;;7.20;99.90;;;;;;5094004;28;20406;-76
2023/04/15 05:09:06;;;;;;;18.92;13.27;;;7.30;99.90;;;;;;5092341;28;20958;-77
2023/04/15 05:11:32;;;;;;;18.70;12.87;;;7.40;99.90;;;;;;5093579;28;20402;-76
2023/04/15 05:14:00;;;;;;;17.07;11.77;;;7.50;99.90;;;;;;5087518;28;20406;-77
2023/04/15 05:16:26;;;;;;;15.57;10.60;;;7.50;99.90;;;;;;5093231;28;21503;-78
2023/04/15 05:18:51;;;;;;;17.97;11.30;;;7.60;99.90;;;;;;5093443;28;20480;-76
2023/04/15 05:21:17;;;;;;;14.07;9.93;;;7.60;99.90;;;;;;5091558;28;20409;-76
2023/04/15 05:23:43;;;;;;;12.45;8.75;;;7.70;99.90;;;;;;5090638;28;20409;-76
2023/04/15 05:26:08;;;;;;;11.87;8.37;;;7.70;99.90;;;;;;5089581;28;20429;-78
2023/04/15 05:28:34;;;;;;;12.87;8.43;;;7.70;99.90;;;;;;5090800;28;20430;-78
2023/04/15 05:31:00;;;;;;;13.85;9.25;;;7.80;99.90;;;;;;5094401;28;20402;-78
2023/04/15 05:33:26;;;;;;;13.32;8.52;;;7.90;99.90;;;;;;5088330;28;20409;-78
2023/04/15 05:35:52;;;;;;;11.00;8.23;;;7.90;99.90;;;;;;5096998;28;20398;-78
2023/04/15 05:38:17;;;;;;;11.63;8.00;;;7.90;99.90;;;;;;5094178;28;20449;-78
2023/04/15 05:40:43;;;;;;;13.43;8.07;;;8.00;99.90;;;;;;5099855;28;20406;-78
2023/04/15 05:43:08;;;;;;;13.90;8.93;;;8.00;99.90;;;;;;5100677;28;20453;-76
2023/04/15 05:45:34;;;;;;;13.25;8.38;;;8.00;99.90;;;;;;5099839;28;20467;-77
2023/04/15 05:48:00;;;;;;;12.53;8.83;;;8.10;99.90;;;;;;5102066;28;20866;-76
2023/04/15 05:50:25;;;;;;;12.80;8.73;;;8.10;99.90;;;;;;5094496;28;20406;-77
2023/04/15 05:52:51;;;;;;;14.68;8.52;;;8.20;99.90;;;;;;5092854;28;20407;-77
2023/04/15 05:55:17;;;;;;;11.90;8.20;;;8.20;99.90;;;;;;5096298;28;20407;-77
2023/04/15 05:57:42;;;;;;;11.30;7.95;;;8.20;99.90;;;;;;5095209;28;20479;-76
2023/04/15 06:00:09;;;;;;;12.57;8.40;;;8.30;99.90;;;;;;5099420;28;20394;-77
2023/04/15 06:02:35;;;;;;;15.10;8.43;;;8.30;99.90;;;;;;5089167;28;20449;-77
2023/04/15 06:05:00;;;;;;;11.38;8.10;;;8.30;99.90;;;;;;5095243;28;20406;-77
2023/04/15 06:07:26;;;;;;;11.77;8.00;;;8.40;99.90;;;;;;5089823;28;20736;-76
2023/04/15 06:09:52;;;;;;;9.52;7.50;;;8.40;99.90;;;;;;5071693;28;20452;-76
2023/04/15 06:12:17;;;;;;;11.00;7.63;;;8.40;99.90;;;;;;5095472;28;20402;-76
2023/04/15 06:14:43;;;;;;;12.07;7.07;;;8.50;99.90;;;;;;5078347;28;20413;-76
2023/04/15 06:17:09;;;;;;;12.30;8.13;;;8.50;99.90;;;;;;5094752;28;20436;-75
2023/04/15 06:19:35;;;;;;;11.57;7.63;;;8.50;99.90;;;;;;5095328;28;21570;-79
2023/04/15 06:22:01;;;;;;;14.98;8.70;;;8.50;99.90;;;;;;5099264;28;20409;-77
2023/04/15 06:24:27;;;;;;;14.88;8.57;;;8.60;99.90;;;;;;5097565;28;20402;-76
2023/04/15 06:26:53;;;;;;;12.35;7.28;;;8.60;99.90;;;;;;5097565;28;20971;-76
2023/04/15 06:29:19;;;;;;;10.40;6.70;;;8.60;99.90;;;;;;5096546;28;20434;-77
2023/04/15 06:31:47;;;;;;;12.85;6.82;;;8.60;99.90;;;;;;5094421;28;20494;-76
2023/04/15 06:34:12;;;;;;;12.07;7.50;;;8.60;99.90;;;;;;5096120;28;20418;-76
2023/04/15 06:36:38;;;;;;;13.13;7.60;;;8.60;99.90;;;;;;5099114;28;20400;-76
2023/04/15 06:39:03;;;;;;;13.00;7.37;;;8.60;99.90;;;;;;5092246;28;20417;-76
2023/04/15 06:41:29;;;;;;;13.52;7.53;;;8.60;99.90;;;;;;5100977;28;20428;-77
2023/04/15 06:43:55;;;;;;;12.20;6.70;;;8.60;99.90;;;;;;5100757;28;20413;-76
2023/04/15 06:46:21;;;;;;;12.35;7.10;;;8.60;99.90;;;;;;5088307;28;20475;-76
2023/04/15 06:48:46;;;;;;;12.17;6.07;;;8.60;99.90;;;;;;5096232;28;20426;-77
2023/04/15 06:51:12;;;;;;;10.70;6.18;;;8.60;99.90;;;;;;5097582;28;20979;-76
2023/04/15 06:53:40;;;;;;;10.38;6.47;;;8.60;99.90;;;;;;5093273;28;20405;-77
2023/04/15 06:56:07;;;;;;;11.45;5.88;;;8.60;99.90;;;;;;5091122;28;20468;-77
2023/04/15 06:58:33;;;;;;;10.25;6.18;;;8.60;99.90;;;;;;5083368;28;20398;-76
2023/04/15 07:00:58;;;;;;;10.10;6.20;;;8.60;99.90;;;;;;5083752;28;20751;-77
2023/04/15 07:03:24;;;;;;;10.23;5.60;;;8.60;99.90;;;;;;5085385;28;20431;-79
2023/04/15 07:05:49;;;;;;;8.13;4.93;;;8.70;99.90;;;;;;5064131;28;20414;-78
2023/04/15 07:08:15;;;;;;;12.57;4.72;;;8.70;99.90;;;;;;5064561;28;20455;-77
2023/04/15 07:10:41;;;;;;;7.73;4.97;;;8.70;99.90;;;;;;5094393;28;20397;-77
2023/04/15 07:13:07;;;;;;;8.48;5.13;;;8.80;99.90;;;;;;5088617;28;20413;-77
2023/04/15 07:15:33;;;;;;;9.17;5.33;;;8.80;99.90;;;;;;5092194;28;20406;-77
2023/04/15 07:17:59;;;;;;;10.65;5.68;;;8.70;99.90;;;;;;5092243;28;20505;-76
2023/04/15 07:20:24;;;;;;;10.93;5.13;;;8.80;99.90;;;;;;5091391;28;20496;-76
2023/04/15 07:22:50;;;;;;;13.70;5.07;;;8.90;99.90;;;;;;5096066;28;20467;-76
2023/04/15 07:25:16;;;;;;;8.38;4.10;;;8.90;99.90;;;;;;5087660;28;20473;-76
2023/04/15 07:27:42;;;;;;;6.30;4.32;;;9.00;99.90;;;;;;5090000;28;20481;-77
2023/04/15 07:30:08;;;;;;;9.55;4.80;;;9.00;99.90;;;;;;5090147;28;20811;-76
2023/04/15 07:32:34;;;;;;;9.95;5.13;;;9.00;99.90;;;;;;5085011;28;20496;-76
2023/04/15 07:35:00;;;;;;;7.97;4.47;;;9.00;99.90;;;;;;5089058;28;20406;-76
2023/04/15 07:37:27;;;;;;;8.02;4.03;;;9.00;99.90;;;;;;5088361;28;20436;-76
2023/04/15 07:39:53;;;;;;;7.35;3.90;;;8.90;99.90;;;;;;5099659;28;20403;-76
2023/04/15 07:42:18;;;;;;;8.25;3.85;;;8.90;99.90;;;;;;5098735;28;20397;-78
2023/04/15 07:44:44;;;;;;;6.95;3.45;;;8.90;99.90;;;;;;5077918;28;20900;-78
2023/04/15 07:47:10;;;;;;;6.70;3.37;;;9.00;99.90;;;;;;5087552;28;20472;-78
2023/04/15 07:49:36;;;;;;;6.05;3.08;;;9.00;99.90;;;;;;5092360;28;20437;-78
2023/04/15 07:52:02;;;;;;;6.03;3.20;;;9.00;99.90;;;;;;5089355;28;20421;-76
2023/04/15 07:54:28;;;;;;;5.80;2.97;;;8.90;99.90;;;;;;5086897;28;20413;-77
2023/04/15 07:56:54;;;;;;;4.95;2.70;;;9.00;99.90;;;;;;5086699;28;20421;-76
2023/04/15 07:59:20;;;;;;;5.37;2.40;;;9.00;99.90;;;;;;5091750;28;20429;-77
2023/04/15 08:01:46;;;;;;;4.33;2.50;;;9.00;99.90;;;;;;5065803;28;20508;-76
2023/04/15 08:04:11;;;;;;;5.82;2.65;;;9.00;99.90;;;;;;5089602;28;20428;-75
2023/04/15 08:06:38;;;;;;;9.63;2.87;;;9.00;99.90;;;;;;5090174;28;20409;-75
2023/04/15 08:09:05;;;;;;;5.10;2.75;;;9.00;99.90;;;;;;5084207;28;20807;-75
2023/04/15 08:11:30;;;;;;;6.20;2.42;;;9.00;99.90;;;;;;5078641;28;20429;-75
2023/04/15 08:13:56;;;;;;;5.40;2.10;;;9.00;99.90;;;;;;5085286;28;20406;-75
2023/04/15 08:16:24;;;;;;;7.22;2.00;;;8.90;99.90;;;;;;5092091;28;20478;-75
2023/04/15 08:18:51;;;;;;;5.60;2.13;;;8.90;99.90;;;;;;5095679;28;20414;-75
2023/04/15 08:21:18;;;;;;;5.63;1.77;;;9.00;99.90;;;;;;5089842;28;20825;-76
2023/04/15 08:23:44;;;;;;;5.40;1.85;;;9.00;99.90;;;;;;5092623;28;20789;-77
2023/04/15 08:26:11;;;;;;;9.95;2.15;;;9.10;99.90;;;;;;5074674;28;20421;-76
2023/04/15 08:28:41;;;;;;;4.65;1.63;;;9.10;99.90;;;;;;5097658;28;20458;-76
2023/04/15 08:31:08;;;;;;;5.65;1.90;;;9.20;99.90;;;;;;5091960;28;20473;-76
2023/04/15 08:33:34;;;;;;;5.65;2.00;;;9.30;99.90;;;;;;5084737;28;20783;-76
2023/04/15 08:35:59;;;;;;;5.93;1.73;;;9.30;99.90;;;;;;5096486;28;20429;-76
2023/04/15 08:38:25;;;;;;;5.53;1.50;;;9.50;99.90;;;;;;5100543;28;20430;-77
2023/04/15 08:40:51;;;;;;;4.90;1.35;;;9.50;99.90;;;;;;5096985;28;20451;-76
2023/04/15 08:43:27;;;;;;;5.85;2.25;;;9.50;99.90;;;;;;5098808;28;20416;-76
2023/04/15 08:45:54;;;;;;;3.50;1.10;;;9.60;99.90;;;;;;5088045;28;20456;-75
2023/04/15 08:48:20;;;;;;;3.57;1.20;;;9.60;99.90;;;;;;5089190;28;20432;-76
2023/04/15 08:50:47;;;;;;;3.38;1.30;;;9.60;99.90;;;;;;5093163;28;20794;-76
2023/04/15 08:53:14;;;;;;;3.78;1.02;;;9.70;99.90;;;;;;5087259;28;20422;-76
2023/04/15 08:55:44;;;;;;;3.85;1.23;;;9.60;99.90;;;;;;5092931;28;20447;-75
2023/04/15 08:58:11;;;;;;;5.03;1.55;;;9.60;99.90;;;;;;5079603;28;20414;-76
2023/04/15 09:00:40;;;;;;;4.13;1.50;;;9.60;99.90;;;;;;5066944;28;20844;-76
2023/04/15 09:03:06;;;;;;;6.07;1.65;;;9.50;99.90;;;;;;5082056;28;20421;-76
2023/04/15 09:05:34;;;;;;;5.80;1.75;;;9.50;99.90;;;;;;5093021;28;20516;-76
2023/04/15 09:08:01;;;;;;;4.72;2.22;;;9.50;99.90;;;;;;5090753;28;20790;-77
2023/04/15 09:10:27;;;;;;;5.20;1.60;;;9.60;99.90;;;;;;5091104;28;20417;-77
2023/04/15 09:12:53;;;;;;;4.53;1.30;;;9.70;99.90;;;;;;5088910;28;20423;-77
2023/04/15 09:15:19;;;;;;;5.72;1.20;;;9.80;99.90;;;;;;5089946;28;20416;-77
2023/04/15 09:17:46;;;;;;;4.23;1.30;;;9.90;99.90;;;;;;5089103;28;20778;-77
2023/04/15 09:20:13;;;;;;;6.05;1.75;;;9.90;99.90;;;;;;5091203;28;20455;-76
2023/04/15 09:22:41;;;;;;;3.88;1.27;;;10.00;99.90;;;;;;5086951;28;20418;-77
2023/04/15 09:25:28;;;;;;;4.10;1.42;;;10.00;99.90;;;;;;5072321;28;20772;-78
2023/04/15 09:27:55;;;;;;;5.18;1.70;;;9.90;99.90;;;;;;5089151;28;20483;-76
2023/04/15 09:30:21;;;;;;;5.78;1.42;;;9.90;99.90;;;;;;5090480;28;20509;-76
2023/04/15 09:32:52;;;;;;;7.00;1.70;;;9.80;99.90;;;;;;5067684;28;20533;-76
2023/04/15 09:35:22;;;;;;;6.82;1.33;;;9.80;99.90;;;;;;5097470;28;20985;-76
2023/04/15 09:37:51;;;;;;;4.65;1.45;;;9.90;99.90;;;;;;5094554;28;20525;-76
2023/04/15 09:40:36;;;;;;;5.28;1.20;;;10.00;99.90;;;;;;5091371;28;20408;-77
2023/04/15 09:43:06;;;;;;;5.80;1.40;;;10.10;99.90;;;;;;5085251;28;20443;-76
2023/04/15 09:45:33;;;;;;;3.95;1.30;;;10.10;99.90;;;;;;5092087;28;20413;-76
2023/04/15 09:48:25;;;;;;;5.28;1.40;;;10.10;99.90;;;;;;5087070;28;20442;-77
2023/04/15 09:50:56;;;;;;;3.65;0.93;;;10.10;99.90;;;;;;5079855;28;20479;-77
2023/04/15 09:53:24;;;;;;;4.35;1.00;;;10.10;99.90;;;;;;5094693;28;20424;-76
2023/04/15 09:55:55;;;;;;;3.17;1.10;;;10.20;99.90;;;;;;5089969;28;20405;-76
2023/04/15 09:58:29;;;;;;;5.22;1.70;;;10.20;99.90;;;;;;5096963;28;20427;-76
2023/04/15 10:00:56;;;;;;;6.50;1.73;;;10.20;99.90;;;;;;5079097;28;20410;-77
2023/04/15 10:03:28;;;;;;;6.47;4.25;;;10.30;99.90;;;;;;5099518;28;20416;-76
2023/04/15 10:05:56;;;;;;;5.95;2.00;;;10.30;99.90;;;;;;5094528;28;21150;-77
2023/04/15 10:08:24;;;;;;;12.93;2.03;;;10.40;99.90;;;;;;5096469;28;20567;-76
2023/04/15 10:10:51;;;;;;;3.35;0.90;;;10.40;99.90;;;;;;5095066;28;20469;-77
2023/04/15 10:13:19;;;;;;;4.90;1.60;;;10.40;99.90;;;;;;5091959;28;20478;-77
2023/04/15 10:16:08;;;;;;;6.03;1.60;;;10.40;99.90;;;;;;5091116;28;20431;-77
2023/04/15 10:18:39;;;;;;;4.37;1.13;;;10.30;99.90;;;;;;5080680;28;20426;-77
2023/04/15 10:21:07;;;;;;;4.82;1.23;;;10.30;99.90;;;;;;5085160;28;20515;-76
2023/04/15 10:23:33;;;;;;;7.23;1.63;;;10.30;99.90;;;;;;5088314;28;20456;-77
2023/04/15 10:26:00;;;;;;;6.40;1.43;;;10.30;99.90;;;;;;5092977;28;20998;-77
2023/04/15 10:28:26;;;;;;;4.40;1.40;;;10.30;99.90;;;;;;5087030;28;20455;-77
2023/04/15 10:30:52;;;;;;;4.80;1.35;;;10.30;99.90;;;;;;5092806;28;20409;-78
2023/04/15 10:33:21;;;;;;;4.57;1.50;;;10.30;99.90;;;;;;5086561;28;20488;-78
2023/04/15 10:35:49;;;;;;;5.80;1.95;;;10.30;99.90;;;;;;5101604;27;20431;-77
2023/04/15 10:38:36;;;;;;;4.75;1.50;;;10.30;99.90;;;;;;5091629;28;20462;-78
2023/04/15 10:41:22;;;;;;;6.70;2.28;;;10.30;99.90;;;;;;5089789;28;20390;-78
2023/04/15 10:43:55;;;;;;;7.43;1.88;;;10.20;99.90;;;;;;5087581;28;21039;-78
2023/04/15 10:46:38;;;;;;;8.10;1.77;;;10.10;99.90;;;;;;5091809;28;20447;-77
2023/04/15 10:49:12;;;;;;;3.63;1.10;;;10.10;99.90;;;;;;5093596;28;20430;-77
2023/04/15 10:51:42;;;;;;;6.47;1.33;;;10.10;99.90;;;;;;5101609;28;20415;-77
2023/04/15 10:54:16;;;;;;;7.18;1.40;;;10.10;99.90;;;;;;5076690;28;20406;-78
2023/04/15 10:56:43;;;;;;;6.63;1.80;;;10.10;99.90;;;;;;5081816;28;20425;-77
2023/04/15 10:59:10;;;;;;;6.43;1.60;;;10.20;99.90;;;;;;5090163;28;20418;-77
2023/04/15 11:02:00;;;;;;;8.38;1.60;;;10.20;99.90;;;;;;5095058;28;20927;-77
2023/04/15 11:04:56;;;;;;;6.60;1.40;;;10.20;99.90;;;;;;5096581;28;20489;-75
2023/04/15 11:07:39;;;;;;;7.68;1.77;;;10.10;99.90;;;;;;5093750;28;20419;-75
2023/04/15 11:10:19;;;;;;;6.70;1.45;;;10.00;99.90;;;;;;5087095;28;20417;-76
2023/04/15 11:12:46;;;;;;;7.05;1.50;;;10.00;99.90;;;;;;5097269;28;20424;-76
2023/04/15 11:15:35;;;;;;;9.73;1.85;;;9.90;99.90;;;;;;5065205;28;20432;-75
2023/04/15 11:18:15;;;;;;;6.73;1.80;;;9.90;99.90;;;;;;5092099;28;21084;-76
2023/04/15 11:20:49;;;;;;;6.25;1.60;;;9.90;99.90;;;;;;5086019;28;20429;-76
2023/04/15 11:23:16;;;;;;;7.30;1.30;;;9.90;99.90;;;;;;5092134;28;20390;-76
2023/04/15 11:25:42;;;;;;;8.90;1.83;;;9.80;99.90;;;;;;5092647;28;20435;-76
2023/04/15 11:28:08;;;;;;;6.57;1.48;;;9.80;99.90;;;;;;5091846;28;21001;-77
2023/04/15 11:30:36;;;;;;;9.03;2.90;;;9.80;99.90;;;;;;5091650;28;20416;-76
2023/04/15 11:33:04;;;;;;;7.30;1.27;;;9.80;99.90;;;;;;5056893;28;20505;-77
2023/04/15 11:35:30;;;;;;;7.68;1.83;;;9.70;99.90;;;;;;5084310;28;20433;-76
2023/04/15 11:37:57;;;;;;;9.60;2.00;;;9.80;99.90;;;;;;5087615;28;20485;-76
2023/04/15 11:40:28;;;;;;;8.85;1.90;;;9.70;99.90;;;;;;5090500;28;20422;-76
2023/04/15 11:43:13;;;;;;;10.95;1.92;;;9.80;99.90;;;;;;5089498;28;20414;-76
2023/04/15 11:45:58;;;;;;;8.87;1.60;;;9.80;99.90;;;;;;5094039;28;21426;-76
2023/04/15 11:48:29;;;;;;;7.78;1.63;;;9.80;99.90;;;;;;5078677;28;20433;-77
2023/04/15 11:51:00;;;;;;;7.57;1.38;;;9.80;99.90;;;;;;5096236;28;20436;-77
2023/04/15 11:53:58;;;;;;;7.15;1.40;;;9.80;99.90;;;;;;5099625;28;20770;-75
2023/04/15 11:56:26;;;;;;;7.90;1.45;;;9.80;99.90;;;;;;5057272;28;20846;-76
2023/04/15 11:58:58;;;;;;;8.63;1.40;;;9.80;99.90;;;;;;5088825;28;20467;-76
2023/04/15 12:01:35;;;;;;;10.18;1.80;;;9.70;99.90;;;;;;5094341;28;20426;-76
2023/04/15 12:04:02;;;;;;;8.77;1.50;;;9.70;99.90;;;;;;5083198;28;20959;-76
2023/04/15 12:06:33;;;;;;;10.93;1.67;;;9.80;99.90;;;;;;5094217;28;20424;-76
2023/04/15 12:09:07;;;;;;;8.88;1.63;;;9.80;99.90;;;;;;5092976;28;20461;-76
2023/04/15 12:11:37;;;;;;;7.78;1.52;;;9.80;99.90;;;;;;5089976;28;20413;-75
2023/04/15 12:14:25;;;;;;;7.43;1.67;;;9.90;99.90;;;;;;5089247;28;20979;-76
2023/04/15 12:17:00;;;;;;;8.10;1.50;;;9.80;99.90;;;;;;5061009;28;20510;-75
2023/04/15 12:19:27;;;;;;;8.63;2.00;;;9.80;99.90;;;;;;5076757;28;20430;-76
2023/04/15 12:22:04;;;;;;;7.47;1.50;;;9.70;99.90;;;;;;5091116;28;20420;-76
2023/04/15 12:24:34;;;;;;;10.63;1.42;;;9.70;99.90;;;;;;5086175;28;20426;-75
2023/04/15 12:27:14;;;;;;;10.40;1.77;;;9.70;99.90;;;;;;5086663;28;20918;-75
2023/04/15 12:29:42;;;;;;;12.80;2.97;;;9.60;99.90;;;;;;5085478;28;20441;-76
2023/04/15 12:32:12;;;;;;;8.25;1.55;;;9.60;99.90;;;;;;5091318;28;20402;-76
2023/04/15 12:34:48;;;;;;;10.18;1.40;;;9.60;99.90;;;;;;5087133;28;20498;-76
2023/04/15 12:37:13;;;;;;;8.10;1.70;;;9.60;99.90;;;;;;5093439;28;20825;-76
2023/04/15 12:39:41;;;;;;;8.73;1.73;;;9.60;99.90;;;;;;5086020;28;20422;-75
2023/04/15 12:42:08;;;;;;;8.18;1.40;;;9.60;99.90;;;;;;5096797;28;20482;-76
2023/04/15 12:44:35;;;;;;;10.63;1.85;;;9.60;99.90;;;;;;5098785;28;20425;-76
2023/04/15 12:47:01;;;;;;;8.68;1.60;;;9.60;99.90;;;;;;5095597;28;20474;-76
2023/04/15 12:49:27;;;;;;;10.48;1.42;;;9.60;99.90;;;;;;5095929;28;20475;-76
2023/04/15 12:51:59;;;;;;;9.10;1.58;;;9.70;99.90;;;;;;5101668;28;20416;-76